Time;durP1;ratioP1;P1;durP2;ratioP2;P2;SDS_P1;SDS_P2;PMS_P1;PMS_P2;Temp;Humidity;BMP_temperature;BMP_pressure;BME280_temperature;BME280_humidity;BME280_pressure;Samples;Min_cycle;Max_cycle;Signal;HPM_P1;HPM_P2
2023/07/19 00:01:34;;;;;;;1.58;1.05;;;;;;;16.78;81.62;101476.00;5036760;28;20021;-84
2023/07/19 00:03:59;;;;;;;2.80;1.65;;;;;;;16.78;81.67;101482.13;5066061;28;20087;-84
2023/07/19 00:06:25;;;;;;;5.15;1.30;;;;;;;16.76;81.82;101481.34;5054727;28;20100;-85
2023/07/19 00:08:50;;;;;;;3.17;1.42;;;;;;;16.75;82.19;101481.44;5068181;28;20043;-84
2023/07/19 00:11:16;;;;;;;2.75;1.50;;;;;;;16.73;82.10;101478.88;5074708;28;20032;-84
2023/07/19 00:13:41;;;;;;;1.63;1.30;;;;;;;16.70;81.91;101479.06;5044233;28;20231;-85
2023/07/19 00:16:07;;;;;;;2.85;1.20;;;;;;;16.69;82.08;101477.34;5036857;28;20104;-85
2023/07/19 00:18:33;;;;;;;2.17;1.40;;;;;;;16.66;82.23;101470.47;5054410;28;20327;-84
2023/07/19 00:20:58;;;;;;;2.45;1.55;;;;;;;16.66;82.57;101467.81;5054678;28;20104;-85
2023/07/19 00:23:24;;;;;;;2.33;1.60;;;;;;;16.65;82.46;101466.09;5054551;28;20384;-85
2023/07/19 00:25:49;;;;;;;2.63;1.40;;;;;;;16.64;82.50;101464.38;5054485;28;20055;-85
2023/07/19 00:28:14;;;;;;;4.85;1.40;;;;;;;16.63;82.53;101452.13;5054695;28;20049;-85
2023/07/19 00:30:41;;;;;;;3.17;1.17;;;;;;;16.64;82.57;101455.59;5053942;28;20041;-85
2023/07/19 00:33:06;;;;;;;2.47;1.23;;;;;;;16.63;82.34;101456.56;5054589;28;20085;-85
2023/07/19 00:35:32;;;;;;;1.77;1.40;;;;;;;16.63;82.18;101457.41;5071058;28;20319;-85
2023/07/19 00:37:58;;;;;;;1.85;1.30;;;;;;;16.63;82.43;101446.81;5074340;28;20370;-85
2023/07/19 00:40:23;;;;;;;2.95;1.27;;;;;;;16.62;82.61;101446.91;5056107;28;20272;-85
2023/07/19 00:42:56;;;;;;;2.08;1.42;;;;;;;16.62;82.71;101441.63;5072526;28;20024;-85
2023/07/19 00:45:21;;;;;;;3.55;1.40;;;;;;;16.61;82.68;101445.22;5057718;28;20033;-85
2023/07/19 00:47:46;;;;;;;1.92;1.45;;;;;;;16.60;82.79;101441.69;5058115;28;20043;-85
2023/07/19 00:50:12;;;;;;;2.53;1.38;;;;;;;16.60;83.04;101436.41;5057870;28;20339;-85
2023/07/19 00:52:38;;;;;;;2.88;1.65;;;;;;;16.60;82.83;101440.84;5057209;28;20037;-85
2023/07/19 00:55:04;;;;;;;2.60;1.30;;;;;;;16.58;83.01;101446.22;5058280;28;20029;-85
2023/07/19 00:57:29;;;;;;;1.33;1.10;;;;;;;16.57;83.17;101439.25;5057917;28;20350;-84
2023/07/19 00:59:55;;;;;;;2.17;1.27;;;;;;;16.56;83.27;101434.03;5059151;28;20032;-85
2023/07/19 01:02:21;;;;;;;2.67;1.58;;;;;;;16.55;83.25;101443.75;5077683;28;20032;-85
2023/07/19 01:04:46;;;;;;;3.00;1.45;;;;;;;16.53;83.06;101437.69;5077284;28;20040;-84
2023/07/19 01:07:12;;;;;;;3.95;1.67;;;;;;;16.53;83.01;101434.19;5077772;28;20086;-84
2023/07/19 01:09:37;;;;;;;3.08;1.75;;;;;;;16.52;82.70;101430.72;5045520;28;20055;-85
2023/07/19 01:12:03;;;;;;;9.02;1.67;;;;;;;16.53;82.84;101431.56;5077530;28;20060;-85
2023/07/19 01:14:28;;;;;;;2.90;1.92;;;;;;;16.53;82.90;101429.75;5076913;28;20029;-85
2023/07/19 01:16:54;;;;;;;1.73;1.40;;;;;;;16.52;83.06;101428.06;5077523;28;20082;-85
2023/07/19 01:19:20;;;;;;;2.28;1.40;;;;;;;16.53;83.54;101428.91;5076619;28;20036;-85
2023/07/19 01:21:48;;;;;;;1.60;1.42;;;;;;;16.53;83.58;101426.28;5077336;28;20036;-85
2023/07/19 01:24:13;;;;;;;5.20;1.90;;;;;;;16.53;83.17;101436.84;5059044;28;20039;-85
2023/07/19 01:26:39;;;;;;;1.70;1.58;;;;;;;16.51;83.21;101427.19;5076668;28;20283;-84
2023/07/19 01:29:05;;;;;;;4.18;1.73;;;;;;;16.51;83.47;101427.19;5059046;28;20044;-84
2023/07/19 01:31:30;;;;;;;2.55;1.80;;;;;;;16.52;83.71;101420.13;5076637;28;20302;-84
2023/07/19 01:33:55;;;;;;;3.03;2.13;;;;;;;16.51;83.56;101421.06;5072714;28;20037;-84
2023/07/19 01:36:21;;;;;;;2.75;1.70;;;;;;;16.51;83.87;101421.06;5056648;28;20044;-84
2023/07/19 01:38:46;;;;;;;3.88;2.15;;;;;;;16.51;83.68;101426.34;5056850;28;20104;-84
2023/07/19 01:41:12;;;;;;;3.83;1.95;;;;;;;16.51;84.02;101429.84;5058328;28;20020;-84
2023/07/19 01:43:37;;;;;;;1.90;1.70;;;;;;;16.49;84.37;101423.78;5069459;28;20033;-84
2023/07/19 01:46:02;;;;;;;2.45;1.90;;;;;;;16.49;84.51;101426.44;5038966;28;20033;-85
2023/07/19 01:48:28;;;;;;;2.55;1.70;;;;;;;16.48;84.05;101422.09;5038494;28;20029;-85
2023/07/19 01:50:53;;;;;;;2.28;2.03;;;;;;;16.49;83.95;101423.78;5056301;28;20261;-85
2023/07/19 01:53:19;;;;;;;3.30;1.60;;;;;;;16.49;83.98;101417.66;5055795;28;20305;-85
2023/07/19 01:55:44;;;;;;;3.58;1.83;;;;;;;16.50;84.08;101417.56;5056176;28;20041;-85
2023/07/19 01:58:10;;;;;;;1.77;1.48;;;;;;;16.50;84.08;101427.31;5056692;28;20040;-84
2023/07/19 02:00:36;;;;;;;2.50;1.60;;;;;;;16.50;83.99;101429.94;5056055;28;20095;-85
2023/07/19 02:03:02;;;;;;;3.00;1.42;;;;;;;16.49;83.56;101421.16;5038543;28;20029;-84
2023/07/19 02:05:27;;;;;;;1.63;1.30;;;;;;;16.48;83.58;101411.53;5072875;28;20052;-84
2023/07/19 02:07:52;;;;;;;2.90;1.55;;;;;;;16.48;83.62;101414.19;5070848;28;20223;-85
2023/07/19 02:10:18;;;;;;;3.05;1.90;;;;;;;16.48;83.68;101419.47;5067765;28;20107;-84
2023/07/19 02:12:43;;;;;;;2.30;1.52;;;;;;;16.49;84.08;101421.16;5057992;28;20077;-85
2023/07/19 02:15:09;;;;;;;2.30;1.38;;;;;;;16.48;83.98;101414.19;5058372;28;20237;-84
2023/07/19 02:17:34;;;;;;;1.52;1.40;;;;;;;16.48;83.99;101408.88;5037723;28;20033;-84
2023/07/19 02:20:00;;;;;;;1.75;1.40;;;;;;;16.49;83.88;101404.44;5056331;28;20036;-85
2023/07/19 02:22:26;;;;;;;3.47;1.52;;;;;;;16.49;83.47;101402.63;5055468;28;20024;-85
2023/07/19 02:24:51;;;;;;;1.70;1.60;;;;;;;16.49;83.33;101407.09;5056129;28;20253;-84
2023/07/19 02:27:16;;;;;;;2.20;1.42;;;;;;;16.48;83.35;101400.09;5055563;28;20044;-84
2023/07/19 02:29:42;;;;;;;2.20;1.15;;;;;;;16.48;83.67;101398.31;5037987;28;20244;-84
2023/07/19 02:32:07;;;;;;;1.92;1.67;;;;;;;16.49;83.59;101404.44;5055980;28;20032;-84
2023/07/19 02:34:33;;;;;;;1.85;1.20;;;;;;;16.50;83.42;101401.72;5064939;28;20091;-84
2023/07/19 02:36:58;;;;;;;2.42;1.50;;;;;;;16.51;83.27;101406.03;5055908;28;20108;-84
2023/07/19 02:39:27;;;;;;;3.83;1.40;;;;;;;16.52;83.56;101399.00;5059865;28;20032;-85
2023/07/19 02:41:53;;;;;;;3.13;1.23;;;;;;;16.51;83.68;101395.47;5076135;28;20067;-85
2023/07/19 02:44:19;;;;;;;2.10;1.20;;;;;;;16.53;83.41;101397.19;5074889;28;20067;-84
2023/07/19 02:46:44;;;;;;;4.43;1.60;;;;;;;16.51;83.40;101402.56;5057263;28;20032;-85
2023/07/19 02:49:11;;;;;;;1.60;1.38;;;;;;;16.49;83.58;101404.44;5067938;28;20074;-85
2023/07/19 02:51:36;;;;;;;1.60;1.50;;;;;;;16.51;83.56;101402.56;5037536;28;20316;-84
2023/07/19 02:54:02;;;;;;;8.48;1.90;;;;;;;16.51;83.26;101406.03;5037724;28;20315;-85
2023/07/19 02:56:27;;;;;;;3.08;1.90;;;;;;;16.51;83.30;101399.91;5037321;28;20035;-85
2023/07/19 02:58:52;;;;;;;3.20;1.95;;;;;;;16.54;83.11;101401.56;5056466;28;20036;-85
2023/07/19 03:01:18;;;;;;;1.70;1.60;;;;;;;16.54;83.22;101397.09;5037795;28;20339;-88
2023/07/19 03:03:43;;;;;;;2.55;1.50;;;;;;;16.56;83.33;101395.22;5040083;28;20100;-88
2023/07/19 03:06:12;;;;;;;3.53;1.63;;;;;;;16.56;83.57;101392.59;5075041;28;20374;-88
2023/07/19 03:08:38;;;;;;;4.68;1.60;;;;;;;16.56;83.95;101397.88;5063645;28;20052;-88
2023/07/19 03:11:06;;;;;;;3.00;1.92;;;;;;;16.56;84.26;101397.03;5073531;28;20043;-88
2023/07/19 03:13:31;;;;;;;3.97;1.70;;;;;;;16.54;84.44;101399.75;5073770;28;20409;-88
2023/07/19 03:15:57;;;;;;;2.22;1.42;;;;;;;16.52;84.89;101399.00;5055281;28;20033;-88
2023/07/19 03:18:22;;;;;;;1.73;1.63;;;;;;;16.50;85.15;101398.22;5055050;28;20114;-88
2023/07/19 03:20:56;;;;;;;3.50;1.80;;;;;;;16.48;85.64;101397.44;5037408;28;20025;-88
2023/07/19 03:23:21;;;;;;;3.60;1.67;;;;;;;16.47;85.82;101393.09;5036887;28;20033;-88
2023/07/19 03:25:46;;;;;;;3.00;1.77;;;;;;;16.45;85.93;101389.69;5037539;28;20033;-88
2023/07/19 03:28:12;;;;;;;3.58;1.70;;;;;;;16.45;86.27;101385.25;5055486;28;20047;-85
2023/07/19 03:30:37;;;;;;;2.55;1.50;;;;;;;16.43;86.92;101388.94;5054988;28;20033;-85
2023/07/19 03:33:03;;;;;;;2.83;1.73;;;;;;;16.41;86.71;101394.31;5037012;28;20216;-85
2023/07/19 03:35:28;;;;;;;2.80;1.50;;;;;;;16.40;86.95;101392.59;5071101;28;20236;-85
2023/07/19 03:37:53;;;;;;;1.83;1.65;;;;;;;16.40;87.30;101387.31;5057005;28;20078;-86
2023/07/19 03:40:19;;;;;;;2.10;1.80;;;;;;;16.39;87.35;101384.75;5056722;28;20040;-85
2023/07/19 03:42:44;;;;;;;2.75;1.60;;;;;;;16.38;87.66;101378.63;5074832;28;20069;-85
2023/07/19 03:45:10;;;;;;;1.92;1.52;;;;;;;16.38;88.06;101383.91;5044275;28;20386;-85
2023/07/19 03:47:36;;;;;;;2.63;1.80;;;;;;;16.38;88.08;101377.78;5054433;28;20079;-85
2023/07/19 03:50:02;;;;;;;2.38;2.10;;;;;;;16.39;88.32;101384.75;5037392;28;20068;-85
2023/07/19 03:52:28;;;;;;;2.28;2.10;;;;;;;16.37;88.45;101389.25;5054397;28;20040;-85
2023/07/19 03:54:56;;;;;;;2.97;2.40;;;;;;;16.34;88.40;101379.72;5036956;28;20107;-85
2023/07/19 03:57:21;;;;;;;2.30;1.70;;;;;;;16.33;88.89;101390.38;5054345;28;20020;-85
2023/07/19 03:59:47;;;;;;;3.13;2.25;;;;;;;16.31;88.86;101395.75;5036840;28;20053;-85
2023/07/19 04:02:12;;;;;;;3.90;2.10;;;;;;;16.29;89.39;101390.53;5051924;28;20372;-85
2023/07/19 04:04:37;;;;;;;2.90;1.90;;;;;;;16.29;89.60;101402.91;5071494;28;20048;-85
2023/07/19 04:07:03;;;;;;;3.38;1.75;;;;;;;16.27;89.63;101402.16;5074815;28;20032;-88
2023/07/19 04:09:28;;;;;;;2.85;1.90;;;;;;;16.25;89.37;101394.31;5060654;28;20036;-88
2023/07/19 04:11:54;;;;;;;2.55;2.00;;;;;;;16.25;89.81;101382.91;5075024;28;20036;-88
2023/07/19 04:14:19;;;;;;;3.03;2.10;;;;;;;16.23;89.64;101382.97;5070044;28;20360;-87
2023/07/19 04:16:45;;;;;;;4.18;1.98;;;;;;;16.25;90.09;101375.81;5036986;28;20115;-88
2023/07/19 04:19:11;;;;;;;2.08;1.83;;;;;;;16.28;89.97;101388.88;5058931;28;20059;-88
2023/07/19 04:21:36;;;;;;;4.15;2.03;;;;;;;16.27;90.09;101386.28;5057956;28;20355;-88
2023/07/19 04:24:01;;;;;;;4.85;2.08;;;;;;;16.28;90.16;101388.88;5058400;28;20044;-88
2023/07/19 04:26:27;;;;;;;2.15;1.90;;;;;;;16.27;90.10;101387.13;5057984;28;20075;-88
2023/07/19 04:28:52;;;;;;;2.90;1.95;;;;;;;16.26;90.37;101382.81;5058969;28;20029;-88
2023/07/19 04:31:18;;;;;;;2.47;2.20;;;;;;;16.27;90.58;101381.84;5057914;28;20032;-88
2023/07/19 04:33:43;;;;;;;5.13;2.40;;;;;;;16.26;90.74;101387.22;5060451;28;20095;-88
2023/07/19 04:36:15;;;;;;;3.15;1.88;;;;;;;16.24;91.25;101387.31;5077992;28;20034;-88
2023/07/19 04:38:41;;;;;;;2.10;1.90;;;;;;;16.25;91.39;101385.53;5077911;28;20036;-88
2023/07/19 04:41:07;;;;;;;2.63;2.30;;;;;;;16.25;91.23;101385.53;5060842;28;20164;-88
2023/07/19 04:43:33;;;;;;;2.50;1.80;;;;;;;16.25;91.18;101383.75;5057953;28;20044;-87
2023/07/19 04:45:58;;;;;;;3.75;2.38;;;;;;;16.26;91.18;101389.88;5074498;28;20301;-88
2023/07/19 04:48:24;;;;;;;5.35;2.63;;;;;;;16.26;91.30;101382.81;5077831;28;20231;-88
2023/07/19 04:50:53;;;;;;;3.58;1.92;;;;;;;16.28;91.69;101377.41;5077524;28;20044;-88
2023/07/19 04:53:21;;;;;;;2.40;2.05;;;;;;;16.30;91.83;101383.50;5077514;28;20046;-88
2023/07/19 04:55:46;;;;;;;4.43;2.15;;;;;;;16.33;91.76;101380.66;5077860;28;20048;-88
2023/07/19 04:58:12;;;;;;;2.17;2.00;;;;;;;16.36;92.35;101384.94;5060018;28;20365;-88
2023/07/19 05:00:38;;;;;;;4.50;2.38;;;;;;;16.39;92.78;101382.09;5059014;28;20033;-88
2023/07/19 05:03:04;;;;;;;3.25;2.22;;;;;;;16.40;92.93;101387.31;5059768;28;20071;-88
2023/07/19 05:05:29;;;;;;;3.92;2.35;;;;;;;16.44;93.18;101387.97;5060299;28;20052;-87
2023/07/19 05:07:54;;;;;;;3.55;2.05;;;;;;;16.47;93.22;101391.31;5045310;28;20043;-88
2023/07/19 05:10:21;;;;;;;2.22;1.80;;;;;;;16.51;93.43;101391.97;5073125;28;20098;-88
2023/07/19 05:12:47;;;;;;;4.00;2.15;;;;;;;16.55;93.39;101396.16;5059192;28;20040;-88
2023/07/19 05:15:12;;;;;;;5.43;2.40;;;;;;;16.56;93.30;101391.75;5077535;28;20243;-88
2023/07/19 05:17:38;;;;;;;5.68;2.20;;;;;;;16.61;93.46;101387.88;5077230;28;20047;-88
2023/07/19 05:20:05;;;;;;;6.25;2.13;;;;;;;16.63;93.93;101390.44;5059462;28;20298;-88
2023/07/19 05:22:31;;;;;;;9.27;2.40;;;;;;;16.65;94.22;101381.47;5070755;28;20343;-88
2023/07/19 05:24:57;;;;;;;4.63;2.33;;;;;;;16.68;94.31;101386.59;5057720;28;20032;-88
2023/07/19 05:27:22;;;;;;;3.78;1.92;;;;;;;16.72;94.17;101389.03;5061609;28;20249;-87
2023/07/19 05:29:48;;;;;;;6.28;2.10;;;;;;;16.77;93.96;101393.16;5059145;28;20063;-88
2023/07/19 05:32:13;;;;;;;4.38;2.15;;;;;;;16.80;93.75;101389.47;5076813;28;20040;-88
2023/07/19 05:34:38;;;;;;;4.85;2.50;;;;;;;16.84;93.46;101396.31;5054405;28;20397;-88
2023/07/19 05:37:05;;;;;;;3.05;2.05;;;;;;;16.86;92.79;101389.13;5053795;28;20021;-88
2023/07/19 05:39:31;;;;;;;10.80;3.15;;;;;;;16.89;92.62;101400.38;5075147;28;20020;-87
2023/07/19 05:41:57;;;;;;;9.50;2.60;;;;;;;16.91;92.36;101389.72;5062344;28;20536;-88
2023/07/19 05:44:22;;;;;;;4.60;2.00;;;;;;;16.93;92.08;101389.63;5077628;28;20060;-87
2023/07/19 05:46:48;;;;;;;7.57;2.53;;;;;;;16.94;91.76;101392.19;5075826;28;20401;-87
2023/07/19 05:49:13;;;;;;;10.40;2.33;;;;;;;16.95;91.51;101388.59;5056990;28;20263;-88
2023/07/19 05:51:39;;;;;;;6.78;2.40;;;;;;;16.97;91.47;101391.16;5038450;28;20263;-88
2023/07/19 05:54:04;;;;;;;5.65;2.20;;;;;;;16.97;91.37;101381.44;5057079;28;20040;-88
2023/07/19 05:56:30;;;;;;;2.55;2.00;;;;;;;16.98;91.29;101383.13;5076213;28;20254;-88
2023/07/19 05:58:56;;;;;;;8.57;2.63;;;;;;;17.01;91.09;101388.25;5042898;28;20032;-88
2023/07/19 06:01:21;;;;;;;7.00;1.90;;;;;;;17.01;91.15;101388.25;5056112;28;20045;-87
2023/07/19 06:03:47;;;;;;;5.10;2.08;;;;;;;17.05;91.10;101389.75;5067897;28;20048;-88
2023/07/19 06:06:14;;;;;;;3.15;2.00;;;;;;;17.07;91.09;101389.66;5053977;28;20033;-87
2023/07/19 06:08:40;;;;;;;2.42;2.20;;;;;;;17.10;90.87;101383.34;5073974;28;20028;-87
2023/07/19 06:11:06;;;;;;;2.35;1.90;;;;;;;17.12;90.43;101392.91;5074059;28;20347;-87
2023/07/19 06:13:31;;;;;;;2.85;1.75;;;;;;;17.16;90.04;101390.94;5075279;28;20043;-87
2023/07/19 06:15:57;;;;;;;4.47;1.90;;;;;;;17.17;89.78;101385.53;5073718;28;20087;-87
2023/07/19 06:18:23;;;;;;;1.92;1.77;;;;;;;17.21;88.89;101380.91;5074476;28;20111;-87
2023/07/19 06:20:48;;;;;;;2.90;1.50;;;;;;;17.22;88.69;101380.81;5074949;28;20124;-87
2023/07/19 06:23:14;;;;;;;1.60;1.50;;;;;;;17.25;87.95;101371.84;5074809;28;20291;-87
2023/07/19 06:25:40;;;;;;;1.60;1.50;;;;;;;17.29;87.49;101383.09;5073394;28;20037;-87
2023/07/19 06:28:05;;;;;;;1.75;1.40;;;;;;;17.31;87.70;101386.50;5073966;28;20044;-87
2023/07/19 06:30:31;;;;;;;2.10;1.73;;;;;;;17.33;87.40;101390.75;5074398;28;20032;-87
2023/07/19 06:32:56;;;;;;;5.22;2.22;;;;;;;17.36;87.47;101377.34;5075246;28;20054;-88
2023/07/19 06:35:22;;;;;;;2.75;1.83;;;;;;;17.40;87.30;101383.28;5073437;28;20334;-87
2023/07/19 06:37:48;;;;;;;3.33;1.77;;;;;;;17.42;86.74;101390.19;5074545;28;20362;-87
2023/07/19 06:40:13;;;;;;;5.70;1.95;;;;;;;17.45;86.66;101391.81;5074957;28;20340;-87
2023/07/19 06:42:39;;;;;;;2.03;1.27;;;;;;;17.45;86.43;101384.72;5075382;28;20032;-87
2023/07/19 06:45:05;;;;;;;1.10;1.00;;;;;;;17.49;86.08;101395.13;5075959;28;20032;-87
2023/07/19 06:47:30;;;;;;;2.30;1.08;;;;;;;17.50;85.80;101389.75;5075425;28;20033;-88
2023/07/19 06:49:57;;;;;;;5.00;1.65;;;;;;;17.52;85.42;101393.16;5074441;28;20032;-87
2023/07/19 06:52:23;;;;;;;2.35;1.30;;;;;;;17.53;85.30;101394.00;5075756;28;20146;-87
2023/07/19 06:54:49;;;;;;;4.57;1.50;;;;;;;17.57;84.96;101395.50;5075788;28;20032;-87
2023/07/19 06:57:14;;;;;;;1.77;1.30;;;;;;;17.59;84.96;101388.31;5074874;28;20059;-87
2023/07/19 06:59:40;;;;;;;4.30;1.30;;;;;;;17.61;84.64;101392.56;5074470;28;20031;-87
2023/07/19 07:02:06;;;;;;;3.30;1.42;;;;;;;17.63;84.40;101388.03;5074979;28;20036;-87
2023/07/19 07:04:31;;;;;;;3.05;1.83;;;;;;;17.64;84.48;101396.81;5065969;28;20352;-88
2023/07/19 07:06:57;;;;;;;1.90;1.30;;;;;;;17.68;84.45;101394.84;5060238;28;20037;-87
2023/07/19 07:09:22;;;;;;;2.00;1.27;;;;;;;17.69;84.54;101392.09;5059329;28;20074;-87
2023/07/19 07:11:48;;;;;;;1.25;1.15;;;;;;;17.76;84.19;101403.19;5076161;28;20025;-87
2023/07/19 07:14:13;;;;;;;3.10;1.70;;;;;;;17.79;83.95;101403.84;5067411;28;20106;-88
2023/07/19 07:16:39;;;;;;;4.80;2.28;;;;;;;17.82;84.59;101398.31;5037506;28;20070;-87
2023/07/19 07:19:05;;;;;;;4.40;2.35;;;;;;;17.87;84.77;101397.25;5038728;28;20021;-87
2023/07/19 07:21:31;;;;;;;5.30;2.60;;;;;;;17.89;84.88;101396.19;5055841;28;20031;-87
2023/07/19 07:23:56;;;;;;;2.70;1.83;;;;;;;17.90;84.80;101399.69;5057587;28;20108;-87
2023/07/19 07:26:21;;;;;;;1.80;1.60;;;;;;;17.91;84.43;101404.03;5066617;28;20055;-89
2023/07/19 07:28:47;;;;;;;2.47;1.70;;;;;;;17.92;84.11;101411.03;5094127;28;20091;-88
2023/07/19 07:31:12;;;;;;;2.10;1.90;;;;;;;17.92;84.12;101405.72;5067624;28;20040;-87
2023/07/19 07:33:39;;;;;;;2.33;1.80;;;;;;;17.93;83.85;101397.69;5055333;28;20037;-88
2023/07/19 07:36:04;;;;;;;1.40;1.30;;;;;;;17.94;83.77;101410.00;5056087;28;20041;-88
2023/07/19 07:38:29;;;;;;;2.08;1.38;;;;;;;17.96;83.53;101396.66;5055823;28;20343;-87
2023/07/19 07:41:02;;;;;;;4.38;1.83;;;;;;;17.97;83.82;101399.22;5072822;28;20032;-87
2023/07/19 07:43:31;;;;;;;4.15;2.42;;;;;;;18.00;84.19;101401.66;5057405;28;20039;-87
2023/07/19 07:45:56;;;;;;;2.85;2.10;;;;;;;18.02;83.91;101394.47;5076409;28;20029;-87
2023/07/19 07:48:25;;;;;;;2.15;1.73;;;;;;;18.07;83.56;101396.00;5057467;28;20086;-88
2023/07/19 07:50:52;;;;;;;4.75;2.17;;;;;;;18.11;83.21;101398.34;5075668;28;20020;-87
2023/07/19 07:53:21;;;;;;;2.90;1.90;;;;;;;18.12;83.00;101402.69;5078033;28;20037;-86
2023/07/19 07:55:48;;;;;;;1.52;1.42;;;;;;;18.14;82.88;101403.44;5079724;28;20025;-87
2023/07/19 07:58:13;;;;;;;2.38;1.42;;;;;;;18.14;82.58;101399.94;5079695;28;20342;-87
2023/07/19 08:00:38;;;;;;;3.42;1.77;;;;;;;18.14;82.58;101392.84;5061608;28;20031;-88
2023/07/19 08:03:04;;;;;;;1.88;1.67;;;;;;;18.16;82.44;101393.59;5080028;28;20024;-87
2023/07/19 08:05:31;;;;;;;2.60;1.70;;;;;;;18.19;82.55;101397.84;5078223;28;20051;-87
2023/07/19 08:07:57;;;;;;;2.72;1.80;;;;;;;18.22;82.66;101393.19;5060249;28;20024;-89
2023/07/19 08:10:22;;;;;;;1.80;1.60;;;;;;;18.26;82.34;101385.03;5059810;28;20123;-87
2023/07/19 08:12:48;;;;;;;3.85;2.17;;;;;;;18.33;82.24;101389.00;5059816;28;20052;-87
2023/07/19 08:15:13;;;;;;;3.45;1.63;;;;;;;18.39;82.28;101388.59;5078324;28;20040;-88
2023/07/19 08:17:39;;;;;;;2.22;1.70;;;;;;;18.41;81.39;101384.91;5077742;28;20273;-87
2023/07/19 08:20:09;;;;;;;3.75;2.40;;;;;;;18.45;81.33;101379.41;5078027;28;20349;-87
2023/07/19 08:22:36;;;;;;;2.25;1.80;;;;;;;18.43;81.18;101382.16;5077585;28;20055;-87
2023/07/19 08:25:01;;;;;;;2.33;1.67;;;;;;;18.44;81.40;101386.50;5077855;28;20428;-88
2023/07/19 08:27:27;;;;;;;3.78;1.83;;;;;;;18.43;81.11;101387.47;5077376;28;20056;-86
2023/07/19 08:29:52;;;;;;;2.05;1.85;;;;;;;18.41;80.83;101387.56;5078100;28;20044;-86
2023/07/19 08:32:18;;;;;;;2.80;1.70;;;;;;;18.42;81.08;101391.06;5077412;28;20043;-87
2023/07/19 08:34:45;;;;;;;2.97;1.52;;;;;;;18.44;81.11;101391.81;5077612;28;20062;-87
2023/07/19 08:37:10;;;;;;;2.58;1.88;;;;;;;18.48;80.99;101385.38;5065303;28;20052;-88
2023/07/19 08:39:36;;;;;;;2.25;1.83;;;;;;;18.55;80.89;101393.75;5044979;28;20032;-88
2023/07/19 08:42:03;;;;;;;3.63;2.22;;;;;;;18.59;80.86;101382.00;5077495;28;20036;-88
2023/07/19 08:44:28;;;;;;;1.70;1.60;;;;;;;18.64;80.82;101387.00;5042725;28;20124;-88
2023/07/19 08:46:54;;;;;;;2.15;1.73;;;;;;;18.66;80.50;101393.91;5074105;28;20043;-88
2023/07/19 08:49:20;;;;;;;3.65;2.03;;;;;;;18.69;80.41;101391.06;5073690;28;20043;-85
2023/07/19 08:51:46;;;;;;;8.15;1.70;;;;;;;18.69;80.13;101388.41;5076540;28;20040;-87
2023/07/19 08:54:13;;;;;;;5.53;1.83;;;;;;;18.72;80.19;101388.19;5075472;28;20035;-87
2023/07/19 08:56:39;;;;;;;4.55;1.70;;;;;;;18.74;80.32;101388.09;5076474;28;20081;-87
2023/07/19 08:59:08;;;;;;;1.73;1.63;;;;;;;18.77;79.76;101388.75;5055383;28;20243;-88
2023/07/19 09:01:34;;;;;;;5.25;2.10;;;;;;;18.80;79.85;101387.69;5068134;28;20037;-87
2023/07/19 09:04:00;;;;;;;2.45;1.40;;;;;;;18.82;79.61;101385.81;5057363;28;20020;-89
2023/07/19 09:06:30;;;;;;;4.80;2.30;;;;;;;18.83;79.45;101382.22;5035661;28;1169674;-86
2023/07/19 09:08:55;;;;;;;3.70;1.85;;;;;;;18.86;79.52;101376.69;5075226;28;20432;-87
2023/07/19 09:11:22;;;;;;;3.50;2.20;;;;;;;18.90;79.51;101390.59;5076653;28;20091;-88
2023/07/19 09:13:55;;;;;;;3.25;2.30;;;;;;;18.92;79.43;101388.72;5068593;28;20347;-87
2023/07/19 09:16:31;;;;;;;3.35;1.73;;;;;;;18.93;79.38;101390.41;5076270;28;20433;-87
2023/07/19 09:18:58;;;;;;;2.47;1.75;;;;;;;18.91;79.34;101389.66;5058814;28;20032;-86
2023/07/19 09:21:37;;;;;;;2.40;1.60;;;;;;;18.90;79.13;101390.59;5076400;28;20112;-87
2023/07/19 09:24:04;;;;;;;3.92;2.55;;;;;;;18.88;78.92;101393.38;5058432;28;20343;-88
2023/07/19 09:26:44;;;;;;;4.22;2.30;;;;;;;18.86;79.17;101397.91;5047650;28;20224;-86
2023/07/19 09:29:11;;;;;;;7.90;2.53;;;;;;;18.86;79.52;101402.38;5068477;28;20055;-87
2023/07/19 09:31:57;;;;;;;4.95;2.70;;;;;;;18.82;79.95;101407.03;5077189;28;20103;-87
2023/07/19 09:34:33;;;;;;;3.13;2.08;;;;;;;18.80;79.86;101404.44;5075361;28;20032;-86
2023/07/19 09:36:59;;;;;;;2.30;1.67;;;;;;;18.79;80.00;101405.41;5058743;28;20036;-86
2023/07/19 09:39:25;;;;;;;3.13;2.10;;;;;;;18.78;80.13;101402.88;5053215;28;20025;-87
2023/07/19 09:41:51;;;;;;;2.38;1.77;;;;;;;18.78;80.03;101403.72;5076507;28;20165;-88
2023/07/19 09:44:17;;;;;;;1.92;1.65;;;;;;;18.79;79.73;101401.88;5068944;28;20247;-86
2023/07/19 09:46:44;;;;;;;3.70;2.38;;;;;;;18.80;79.50;101408.91;5076632;28;20324;-86
2023/07/19 09:49:10;;;;;;;6.35;3.15;;;;;;;18.82;79.94;101400.88;5073682;28;20099;-86
2023/07/19 09:51:38;;;;;;;3.10;1.90;;;;;;;18.83;80.27;101406.09;5075609;28;20051;-86
2023/07/19 09:54:13;;;;;;;3.42;1.73;;;;;;;18.84;80.25;101402.47;5075254;28;20064;-87
2023/07/19 09:56:40;;;;;;;4.03;1.83;;;;;;;18.85;80.56;101406.84;5075570;28;20377;-87
2023/07/19 09:59:10;;;;;;;3.78;2.47;;;;;;;18.86;80.32;101410.34;5075396;28;20036;-87
2023/07/19 10:01:37;;;;;;;4.05;1.83;;;;;;;18.87;79.89;101409.41;5071209;28;20027;-87
2023/07/19 10:04:22;;;;;;;2.95;2.65;;;;;;;18.86;79.96;101408.53;5071673;28;20029;-87
2023/07/19 10:06:48;;;;;;;5.35;2.58;;;;;;;18.86;80.56;101405.88;5061947;28;20067;-87
2023/07/19 10:09:29;;;;;;;5.25;2.42;;;;;;;18.88;80.91;101405.78;5074898;28;20032;-87
2023/07/19 10:12:04;;;;;;;6.15;2.60;;;;;;;18.87;80.07;101410.25;5076151;28;20036;-87
2023/07/19 10:14:32;;;;;;;10.60;2.60;;;;;;;18.86;80.40;101403.22;5055840;28;20037;-86
2023/07/19 10:17:01;;;;;;;2.60;1.95;;;;;;;18.88;80.33;101406.66;5075712;28;20024;-86
2023/07/19 10:19:27;;;;;;;2.67;2.00;;;;;;;18.89;80.04;101407.50;5064420;28;20032;-87
2023/07/19 10:22:06;;;;;;;6.25;2.90;;;;;;;18.93;80.04;101420.44;5075574;28;20090;-87
2023/07/19 10:24:33;;;;;;;3.88;2.10;;;;;;;18.96;80.25;101414.94;5050650;28;20601;-88
2023/07/19 10:27:03;;;;;;;8.60;2.60;;;;;;;19.01;80.28;101421.72;5076497;28;20020;-87
2023/07/19 10:29:44;;;;;;;3.10;2.15;;;;;;;19.04;79.95;101416.22;5068285;28;20474;-87
2023/07/19 10:32:10;;;;;;;7.70;2.70;;;;;;;19.06;80.11;101411.66;5075340;28;20028;-87
2023/07/19 10:34:36;;;;;;;3.67;2.08;;;;;;;19.07;79.33;101418.69;5073936;28;20352;-86
2023/07/19 10:37:06;;;;;;;3.15;1.77;;;;;;;19.06;79.21;101414.31;5067422;28;20036;-88
2023/07/19 10:39:32;;;;;;;4.18;1.90;;;;;;;19.07;79.27;101416.88;5069207;28;20305;-88
2023/07/19 10:41:58;;;;;;;3.45;1.80;;;;;;;19.09;79.31;101420.25;5075663;28;20036;-86
2023/07/19 10:44:27;;;;;;;3.10;1.88;;;;;;;19.12;79.08;101421.88;5073962;28;20082;-87
2023/07/19 10:46:54;;;;;;;5.30;1.98;;;;;;;19.14;79.33;101412.00;5067124;28;20085;-87
2023/07/19 10:49:22;;;;;;;4.28;1.63;;;;;;;19.18;78.76;101418.81;5051156;28;20195;-88
2023/07/19 10:51:55;;;;;;;5.03;1.92;;;;;;;19.22;78.69;101416.78;5074771;28;20319;-87
2023/07/19 10:54:21;;;;;;;2.20;1.50;;;;;;;19.27;77.78;101422.63;5055519;28;20028;-87
2023/07/19 10:56:51;;;;;;;4.07;1.60;;;;;;;19.35;77.36;101414.97;5075079;28;20074;-88
2023/07/19 10:59:17;;;;;;;4.70;1.52;;;;;;;19.42;75.57;101420.72;5055685;28;20021;-86
2023/07/19 11:01:43;;;;;;;6.40;1.95;;;;;;;19.47;74.81;101429.25;5075315;28;20093;-88
2023/07/19 11:04:09;;;;;;;6.10;1.67;;;;;;;19.49;73.92;101424.66;5073918;28;20024;-87
2023/07/19 11:06:52;;;;;;;5.18;1.45;;;;;;;19.50;74.82;101424.56;5074726;28;20119;-86
2023/07/19 11:09:18;;;;;;;3.38;1.48;;;;;;;19.52;75.17;101417.34;5049641;28;20036;-87
2023/07/19 11:11:45;;;;;;;1.15;1.05;;;;;;;19.54;75.24;101423.38;5074891;28;20056;-89
2023/07/19 11:14:26;;;;;;;2.55;1.58;;;;;;;19.58;74.73;101426.69;5055539;28;20340;-88
2023/07/19 11:16:55;;;;;;;3.83;1.38;;;;;;;19.60;74.89;101423.94;5075407;28;20529;-88
2023/07/19 11:19:37;;;;;;;2.63;1.60;;;;;;;19.62;74.44;101414.03;5069469;28;20155;-88
2023/07/19 11:22:03;;;;;;;2.45;1.27;;;;;;;19.63;74.20;101424.56;5074592;28;20107;-86